sensor_id;sensor_type;location;lat;lon;timestamp;pressure;altitude;pressure_sealevel;temperature;humidity
11314;BME280;5712;48.858;9.206;2023-08-17T00:01:53;98258.22;;;19.61;100.00
11314;BME280;5712;48.858;9.206;2023-08-17T00:04:19;98250.31;;;19.60;100.00
11314;BME280;5712;48.858;9.206;2023-08-17T00:06:45;98251.19;;;19.60;100.00
11314;BME280;5712;48.858;9.206;2023-08-17T00:09:12;98250.66;;;19.57;100.00
11314;BME280;5712;48.858;9.206;2023-08-17T00:11:39;98246.13;;;19.57;100.00
11314;BME280;5712;48.858;9.206;2023-08-17T00:14:07;98253.00;;;19.60;100.00
11314;BME280;5712;48.858;9.206;2023-08-17T00:16:33;98242.44;;;19.58;100.00
11314;BME280;5712;48.858;9.206;2023-08-17T00:19:00;98252.47;;;19.56;100.00
11314;BME280;5712;48.858;9.206;2023-08-17T00:21:28;98251.66;;;19.56;100.00
11314;BME280;5712;48.858;9.206;2023-08-17T00:23:54;98246.44;;;19.54;100.00
11314;BME280;5712;48.858;9.206;2023-08-17T00:26:21;98240.72;;;19.49;100.00
11314;BME280;5712;48.858;9.206;2023-08-17T00:28:48;98251.78;;;19.46;100.00
11314;BME280;5712;48.858;9.206;2023-08-17T00:31:15;98241.72;;;19.48;100.00
11314;BME280;5712;48.858;9.206;2023-08-17T00:33:42;98236.03;;;19.51;100.00
11314;BME280;5712;48.858;9.206;2023-08-17T00:36:08;98233.72;;;19.56;100.00
11314;BME280;5712;48.858;9.206;2023-08-17T00:38:35;98238.78;;;19.59;100.00
11314;BME280;5712;48.858;9.206;2023-08-17T00:41:01;98228.38;;;19.64;100.00
11314;BME280;5712;48.858;9.206;2023-08-17T00:43:28;98213.63;;;19.60;100.00
11314;BME280;5712;48.858;9.206;2023-08-17T00:45:55;98214.94;;;19.56;100.00
11314;BME280;5712;48.858;9.206;2023-08-17T00:48:23;98216.81;;;19.56;100.00
11314;BME280;5712;48.858;9.206;2023-08-17T00:50:50;98215.09;;;19.55;100.00
11314;BME280;5712;48.858;9.206;2023-08-17T00:53:19;98218.47;;;19.57;100.00
11314;BME280;5712;48.858;9.206;2023-08-17T00:55:46;98226.91;;;19.62;100.00
11314;BME280;5712;48.858;9.206;2023-08-17T00:58:14;98226.06;;;19.69;100.00
11314;BME280;5712;48.858;9.206;2023-08-17T01:00:40;98227.28;;;19.75;100.00
11314;BME280;5712;48.858;9.206;2023-08-17T01:03:07;98217.38;;;19.75;100.00
11314;BME280;5712;48.858;9.206;2023-08-17T01:05:35;98223.25;;;19.79;100.00
11314;BME280;5712;48.858;9.206;2023-08-17T01:08:03;98217.91;;;19.79;100.00
11314;BME280;5712;48.858;9.206;2023-08-17T01:10:31;98209.03;;;19.78;100.00
11314;BME280;5712;48.858;9.206;2023-08-17T01:13:04;98215.72;;;19.82;100.00
11314;BME280;5712;48.858;9.206;2023-08-17T01:15:35;98221.09;;;19.82;100.00
11314;BME280;5712;48.858;9.206;2023-08-17T01:18:09;98226.16;;;19.85;100.00
11314;BME280;5712;48.858;9.206;2023-08-17T01:20:38;98223.47;;;19.85;100.00
11314;BME280;5712;48.858;9.206;2023-08-17T01:23:07;98226.53;;;19.90;100.00
11314;BME280;5712;48.858;9.206;2023-08-17T01:25:33;98216.31;;;19.94;100.00
11314;BME280;5712;48.858;9.206;2023-08-17T01:28:02;98213.97;;;19.99;100.00
11314;BME280;5712;48.858;9.206;2023-08-17T01:30:30;98207.59;;;20.00;100.00
11314;BME280;5712;48.858;9.206;2023-08-17T01:33:05;98213.63;;;20.02;100.00
11314;BME280;5712;48.858;9.206;2023-08-17T01:35:37;98216.16;;;20.03;100.00
11314;BME280;5712;48.858;9.206;2023-08-17T01:38:09;98215.56;;;20.09;100.00
11314;BME280;5712;48.858;9.206;2023-08-17T01:40:38;98215.56;;;20.09;100.00
11314;BME280;5712;48.858;9.206;2023-08-17T01:43:05;98214.88;;;20.07;100.00
11314;BME280;5712;48.858;9.206;2023-08-17T01:45:32;98208.78;;;20.05;100.00
11314;BME280;5712;48.858;9.206;2023-08-17T01:47:59;98219.84;;;20.02;100.00
11314;BME280;5712;48.858;9.206;2023-08-17T01:50:25;98216.16;;;20.03;100.00
11314;BME280;5712;48.858;9.206;2023-08-17T01:52:52;98208.78;;;20.05;100.00
11314;BME280;5712;48.858;9.206;2023-08-17T01:55:21;98210.97;;;20.02;100.00
11314;BME280;5712;48.858;9.206;2023-08-17T01:57:47;98215.44;;;19.93;100.00
11314;BME280;5712;48.858;9.206;2023-08-17T02:00:15;98223.50;;;19.93;100.00
11314;BME280;5712;48.858;9.206;2023-08-17T02:02:42;98219.13;;;19.92;100.00
11314;BME280;5712;48.858;9.206;2023-08-17T02:05:08;98208.63;;;19.99;100.00
11314;BME280;5712;48.858;9.206;2023-08-17T02:07:35;98210.59;;;19.97;100.00
11314;BME280;5712;48.858;9.206;2023-08-17T02:10:01;98207.25;;;19.95;100.00
11314;BME280;5712;48.858;9.206;2023-08-17T02:12:29;98199.03;;;19.96;100.00
11314;BME280;5712;48.858;9.206;2023-08-17T02:14:56;98215.13;;;19.96;100.00
11314;BME280;5712;48.858;9.206;2023-08-17T02:17:23;98215.13;;;19.96;100.00
11314;BME280;5712;48.858;9.206;2023-08-17T02:19:49;98201.38;;;19.99;100.00
11314;BME280;5712;48.858;9.206;2023-08-17T02:22:16;98205.44;;;20.03;100.00
11314;BME280;5712;48.858;9.206;2023-08-17T02:24:42;98208.13;;;20.03;100.00
11314;BME280;5712;48.858;9.206;2023-08-17T02:27:09;98210.81;;;20.03;100.00
11314;BME280;5712;48.858;9.206;2023-08-17T02:29:37;98207.44;;;20.01;100.00
11314;BME280;5712;48.858;9.206;2023-08-17T02:32:04;98210.81;;;20.03;100.00
11314;BME280;5712;48.858;9.206;2023-08-17T02:34:31;98205.13;;;20.06;100.00
11314;BME280;5712;48.858;9.206;2023-08-17T02:36:57;98198.59;;;20.09;100.00
11314;BME280;5712;48.858;9.206;2023-08-17T02:39:26;98197.44;;;20.11;100.00
11314;BME280;5712;48.858;9.206;2023-08-17T02:41:52;98187.72;;;20.10;100.00
11314;BME280;5712;48.858;9.206;2023-08-17T02:44:18;98189.38;;;20.11;100.00
11314;BME280;5712;48.858;9.206;2023-08-17T02:46:46;98190.75;;;20.15;100.00
11314;BME280;5712;48.858;9.206;2023-08-17T02:49:13;98197.94;;;20.15;100.00
11314;BME280;5712;48.858;9.206;2023-08-17T02:51:39;98197.78;;;20.16;100.00
11314;BME280;5712;48.858;9.206;2023-08-17T02:54:06;98189.94;;;20.23;100.00
11314;BME280;5712;48.858;9.206;2023-08-17T02:56:32;98192.94;;;20.28;100.00
11314;BME280;5712;48.858;9.206;2023-08-17T02:58:58;98194.97;;;20.26;100.00
11314;BME280;5712;48.858;9.206;2023-08-17T03:01:25;98189.06;;;20.22;100.00
11314;BME280;5712;48.858;9.206;2023-08-17T03:03:53;98183.38;;;20.25;100.00
11314;BME280;5712;48.858;9.206;2023-08-17T03:06:19;98180.00;;;20.23;100.00
11314;BME280;5712;48.858;9.206;2023-08-17T03:08:46;98172.31;;;20.28;100.00
11314;BME280;5712;48.858;9.206;2023-08-17T03:11:12;98169.28;;;20.31;100.00
11314;BME280;5712;48.858;9.206;2023-08-17T03:13:39;98172.97;;;20.30;100.00
11314;BME280;5712;48.858;9.206;2023-08-17T03:16:05;98175.16;;;20.27;100.00
11314;BME280;5712;48.858;9.206;2023-08-17T03:18:32;98180.38;;;20.28;100.00
11314;BME280;5712;48.858;9.206;2023-08-17T03:20:59;98165.78;;;20.31;100.00
11314;BME280;5712;48.858;9.206;2023-08-17T03:23:26;98170.28;;;20.30;100.00
11314;BME280;5712;48.858;9.206;2023-08-17T03:25:52;98161.41;;;20.30;100.00
11314;BME280;5712;48.858;9.206;2023-08-17T03:28:19;98159.75;;;20.29;100.00
11314;BME280;5712;48.858;9.206;2023-08-17T03:30:45;98160.56;;;20.37;100.00
11314;BME280;5712;48.858;9.206;2023-08-17T03:33:12;98169.63;;;20.36;100.00
11314;BME280;5712;48.858;9.206;2023-08-17T03:35:38;98172.50;;;20.35;100.00
11314;BME280;5712;48.858;9.206;2023-08-17T03:38:06;98175.34;;;20.33;100.00
11314;BME280;5712;48.858;9.206;2023-08-17T03:40:33;98163.44;;;20.36;100.00
11314;BME280;5712;48.858;9.206;2023-08-17T03:42:59;98167.97;;;20.35;100.00
11314;BME280;5712;48.858;9.206;2023-08-17T03:45:26;98167.13;;;20.35;100.00
11314;BME280;5712;48.858;9.206;2023-08-17T03:47:52;98176.00;;;20.35;100.00
11314;BME280;5712;48.858;9.206;2023-08-17T03:50:18;98165.63;;;20.40;100.00
11314;BME280;5712;48.858;9.206;2023-08-17T03:52:45;98179.91;;;20.41;100.00
11314;BME280;5712;48.858;9.206;2023-08-17T03:55:13;98174.03;;;20.45;100.00
11314;BME280;5712;48.858;9.206;2023-08-17T03:57:39;98180.41;;;20.44;100.00
11314;BME280;5712;48.858;9.206;2023-08-17T04:00:07;98176.72;;;20.45;100.00
11314;BME280;5712;48.858;9.206;2023-08-17T04:02:35;98183.09;;;20.44;100.00
11314;BME280;5712;48.858;9.206;2023-08-17T04:05:01;98177.72;;;20.44;100.00
11314;BME280;5712;48.858;9.206;2023-08-17T04:07:28;98192.16;;;20.51;100.00
11314;BME280;5712;48.858;9.206;2023-08-17T04:09:54;98190.78;;;20.47;100.00
11314;BME280;5712;48.858;9.206;2023-08-17T04:12:23;98193.81;;;20.44;100.00
11314;BME280;5712;48.858;9.206;2023-08-17T04:14:50;98195.50;;;20.45;100.00
11314;BME280;5712;48.858;9.206;2023-08-17T04:17:16;98192.97;;;20.52;100.00
11314;BME280;5712;48.858;9.206;2023-08-17T04:19:43;98204.06;;;20.49;100.00
11314;BME280;5712;48.858;9.206;2023-08-17T04:22:09;98195.16;;;20.48;100.00
11314;BME280;5712;48.858;9.206;2023-08-17T04:24:36;98202.69;;;20.45;100.00
11314;BME280;5712;48.858;9.206;2023-08-17T04:27:03;98204.56;;;20.44;100.00
11314;BME280;5712;48.858;9.206;2023-08-17T04:29:31;98206.25;;;20.45;100.00
11314;BME280;5712;48.858;9.206;2023-08-17T04:31:58;98210.59;;;20.54;100.00
11314;BME280;5712;48.858;9.206;2023-08-17T04:34:24;98213.28;;;20.54;100.00
11314;BME280;5712;48.858;9.206;2023-08-17T04:36:51;98215.97;;;20.54;100.00
11314;BME280;5712;48.858;9.206;2023-08-17T04:39:17;98211.59;;;20.45;100.00
11314;BME280;5712;48.858;9.206;2023-08-17T04:41:44;98215.63;;;20.41;100.00
11314;BME280;5712;48.858;9.206;2023-08-17T04:44:10;98216.28;;;20.43;100.00
11314;BME280;5712;48.858;9.206;2023-08-17T04:46:38;98213.09;;;20.40;100.00
11314;BME280;5712;48.858;9.206;2023-08-17T04:49:05;98216.63;;;20.48;100.00
11314;BME280;5712;48.858;9.206;2023-08-17T04:51:31;98221.50;;;20.53;100.00
11314;BME280;5712;48.858;9.206;2023-08-17T04:53:58;98223.38;;;20.52;100.00
11314;BME280;5712;48.858;9.206;2023-08-17T04:56:24;98219.66;;;20.53;100.00
11314;BME280;5712;48.858;9.206;2023-08-17T04:58:51;98221.34;;;20.54;100.00
11314;BME280;5712;48.858;9.206;2023-08-17T05:01:17;98223.03;;;20.55;100.00
11314;BME280;5712;48.858;9.206;2023-08-17T05:03:45;98230.41;;;20.53;100.00
11314;BME280;5712;48.858;9.206;2023-08-17T05:06:12;98229.91;;;20.58;100.00
11314;BME280;5712;48.858;9.206;2023-08-17T05:08:39;98233.09;;;20.61;100.00
11314;BME280;5712;48.858;9.206;2023-08-17T05:11:05;98225.22;;;20.60;100.00
11314;BME280;5712;48.858;9.206;2023-08-17T05:13:32;98225.53;;;20.65;100.00
11314;BME280;5712;48.858;9.206;2023-08-17T05:15:58;98230.91;;;20.65;100.00
11314;BME280;5712;48.858;9.206;2023-08-17T05:18:25;98236.97;;;20.67;100.00
11314;BME280;5712;48.858;9.206;2023-08-17T05:20:53;98236.81;;;20.68;100.00
11314;BME280;5712;48.858;9.206;2023-08-17T05:23:20;98235.81;;;20.69;100.00
11314;BME280;5712;48.858;9.206;2023-08-17T05:25:46;98236.16;;;20.74;100.00
11314;BME280;5712;48.858;9.206;2023-08-17T05:28:13;98242.34;;;20.75;100.00
11314;BME280;5712;48.858;9.206;2023-08-17T05:30:40;98233.63;;;20.81;100.00
11314;BME280;5712;48.858;9.206;2023-08-17T05:33:06;98233.31;;;20.84;100.00
11314;BME280;5712;48.858;9.206;2023-08-17T05:35:33;98228.13;;;20.90;100.00
11314;BME280;5712;48.858;9.206;2023-08-17T05:38:00;98237.53;;;20.94;100.00
11314;BME280;5712;48.858;9.206;2023-08-17T05:40:29;98239.56;;;21.00;100.00
11314;BME280;5712;48.858;9.206;2023-08-17T05:42:56;98231.84;;;21.05;100.00
11314;BME280;5712;48.858;9.206;2023-08-17T05:45:22;98229.81;;;21.07;100.00
11314;BME280;5712;48.858;9.206;2023-08-17T05:47:49;98227.44;;;21.12;100.00
11314;BME280;5712;48.858;9.206;2023-08-17T05:50:15;98234.16;;;21.16;100.00
11314;BME280;5712;48.858;9.206;2023-08-17T05:52:42;98230.47;;;21.17;100.00
11314;BME280;5712;48.858;9.206;2023-08-17T05:55:10;98228.09;;;21.22;100.00
11314;BME280;5712;48.858;9.206;2023-08-17T05:57:36;98223.91;;;21.28;100.00
11314;BME280;5712;48.858;9.206;2023-08-17T06:00:04;98238.88;;;21.30;100.00
11314;BME280;5712;48.858;9.206;2023-08-17T06:02:30;98240.88;;;21.36;100.00
11314;BME280;5712;48.858;9.206;2023-08-17T06:04:57;98243.53;;;21.44;100.00
11314;BME280;5712;48.858;9.206;2023-08-17T06:07:23;98251.09;;;21.49;100.00
11314;BME280;5712;48.858;9.206;2023-08-17T06:09:50;98253.44;;;21.52;100.00
11314;BME280;5712;48.858;9.206;2023-08-17T06:12:17;98259.47;;;21.54;100.00
11314;BME280;5712;48.858;9.206;2023-08-17T06:14:44;98261.00;;;21.56;100.00
11314;BME280;5712;48.858;9.206;2023-08-17T06:17:10;98257.63;;;21.62;100.00
11314;BME280;5712;48.858;9.206;2023-08-17T06:19:37;98261.34;;;21.69;100.00
11314;BME280;5712;48.858;9.206;2023-08-17T06:22:05;98270.06;;;21.71;100.00
11314;BME280;5712;48.858;9.206;2023-08-17T06:24:31;98266.69;;;21.77;100.00
11314;BME280;5712;48.858;9.206;2023-08-17T06:26:58;98258.13;;;21.82;100.00
11314;BME280;5712;48.858;9.206;2023-08-17T06:29:26;98260.28;;;21.86;100.00
11314;BME280;5712;48.858;9.206;2023-08-17T06:31:52;98256.72;;;21.94;100.00
11314;BME280;5712;48.858;9.206;2023-08-17T06:34:20;98259.53;;;22.00;100.00
11314;BME280;5712;48.858;9.206;2023-08-17T06:36:57;98265.22;;;22.13;100.00
11314;BME280;5712;48.858;9.206;2023-08-17T06:39:23;98259.81;;;22.21;100.00
11314;BME280;5712;48.858;9.206;2023-08-17T06:41:50;98260.63;;;22.30;100.00
11314;BME280;5712;48.858;9.206;2023-08-17T06:44:16;98254.16;;;22.39;100.00
11314;BME280;5712;48.858;9.206;2023-08-17T06:46:44;98260.19;;;22.49;100.00
11314;BME280;5712;48.858;9.206;2023-08-17T06:49:11;98262.66;;;22.58;100.00
11314;BME280;5712;48.858;9.206;2023-08-17T06:51:37;98260.28;;;22.63;100.00
11314;BME280;5712;48.858;9.206;2023-08-17T06:54:04;98254.84;;;22.71;100.00
11314;BME280;5712;48.858;9.206;2023-08-17T06:56:31;98267.41;;;22.79;100.00
11314;BME280;5712;48.858;9.206;2023-08-17T06:58:57;98251.53;;;22.84;100.00
11314;BME280;5712;48.858;9.206;2023-08-17T07:01:24;98254.34;;;22.90;100.00
11314;BME280;5712;48.858;9.206;2023-08-17T07:03:53;98261.13;;;22.86;100.00
11314;BME280;5712;48.858;9.206;2023-08-17T07:06:19;98260.28;;;22.86;100.00
11314;BME280;5712;48.858;9.206;2023-08-17T07:08:46;98265.47;;;22.87;100.00
11314;BME280;5712;48.858;9.206;2023-08-17T07:11:12;98271.19;;;22.92;100.00
11314;BME280;5712;48.858;9.206;2023-08-17T07:13:38;98271.78;;;23.02;100.00
11314;BME280;5712;48.858;9.206;2023-08-17T07:16:05;98267.34;;;23.09;100.00
11314;BME280;5712;48.858;9.206;2023-08-17T07:18:31;98265.59;;;23.24;100.00
11314;BME280;5712;48.858;9.206;2023-08-17T07:20:59;98269.50;;;23.36;100.00
11314;BME280;5712;48.858;9.206;2023-08-17T07:23:26;98265.53;;;23.47;100.00
11314;BME280;5712;48.858;9.206;2023-08-17T07:25:52;98267.03;;;23.49;100.00
11314;BME280;5712;48.858;9.206;2023-08-17T07:28:19;98268.25;;;23.61;100.00
11314;BME280;5712;48.858;9.206;2023-08-17T07:30:45;98271.97;;;23.60;100.00
11314;BME280;5712;48.858;9.206;2023-08-17T07:33:12;98272.63;;;23.62;100.00
11314;BME280;5712;48.858;9.206;2023-08-17T07:35:38;98274.13;;;23.65;100.00
11314;BME280;5712;48.858;9.206;2023-08-17T07:38:06;98274.94;;;23.65;100.00
11314;BME280;5712;48.858;9.206;2023-08-17T07:40:33;98279.41;;;23.58;100.00
11314;BME280;5712;48.858;9.206;2023-08-17T07:42:59;98278.75;;;23.56;100.00
11314;BME280;5712;48.858;9.206;2023-08-17T07:45:26;98276.53;;;23.60;100.00
11314;BME280;5712;48.858;9.206;2023-08-17T07:47:53;98266.50;;;23.68;100.00
11314;BME280;5712;48.858;9.206;2023-08-17T07:50:20;98266.03;;;23.79;100.00
11314;BME280;5712;48.858;9.206;2023-08-17T07:52:46;98265.59;;;23.90;100.00
11314;BME280;5712;48.858;9.206;2023-08-17T07:55:14;98261.41;;;24.02;100.00
11314;BME280;5712;48.858;9.206;2023-08-17T07:57:41;98251.75;;;23.93;100.00
11314;BME280;5712;48.858;9.206;2023-08-17T08:00:07;98262.50;;;23.79;100.00
11314;BME280;5712;48.858;9.206;2023-08-17T08:02:34;98257.88;;;23.87;100.00
11314;BME280;5712;48.858;9.206;2023-08-17T08:05:01;98253.47;;;23.86;100.00
11314;BME280;5712;48.858;9.206;2023-08-17T08:07:27;98253.13;;;23.89;100.00
11314;BME280;5712;48.858;9.206;2023-08-17T08:09:54;98258.06;;;24.00;100.00
11314;BME280;5712;48.858;9.206;2023-08-17T08:12:22;98254.06;;;23.96;100.00
11314;BME280;5712;48.858;9.206;2023-08-17T08:14:48;98246.53;;;23.92;100.00
11314;BME280;5712;48.858;9.206;2023-08-17T08:17:16;98246.41;;;23.85;100.00
11314;BME280;5712;48.858;9.206;2023-08-17T08:19:44;98241.09;;;23.77;100.00
11314;BME280;5712;48.858;9.206;2023-08-17T08:22:10;98247.31;;;23.78;100.00
11314;BME280;5712;48.858;9.206;2023-08-17T08:24:37;98255.25;;;23.79;100.00
11314;BME280;5712;48.858;9.206;2023-08-17T08:27:06;98248.09;;;23.86;100.00
11314;BME280;5712;48.858;9.206;2023-08-17T08:29:34;98252.09;;;23.90;100.00
11314;BME280;5712;48.858;9.206;2023-08-17T08:32:00;98250.59;;;23.88;100.00
11314;BME280;5712;48.858;9.206;2023-08-17T08:34:28;98247.72;;;23.89;100.00
11314;BME280;5712;48.858;9.206;2023-08-17T08:36:54;98246.97;;;23.95;100.00
11314;BME280;5712;48.858;9.206;2023-08-17T08:39:21;98245.13;;;23.96;100.00
11314;BME280;5712;48.858;9.206;2023-08-17T08:41:47;98253.31;;;24.02;100.00
11314;BME280;5712;48.858;9.206;2023-08-17T08:44:14;98251.72;;;24.08;100.00
11314;BME280;5712;48.858;9.206;2023-08-17T08:46:44;98257.13;;;24.22;100.00
11314;BME280;5712;48.858;9.206;2023-08-17T08:49:11;98259.78;;;24.37;100.00
11314;BME280;5712;48.858;9.206;2023-08-17T08:51:41;98251.00;;;24.49;100.00
11314;BME280;5712;48.858;9.206;2023-08-17T08:54:11;98245.88;;;24.54;100.00
11314;BME280;5712;48.858;9.206;2023-08-17T08:56:41;98249.78;;;24.66;100.00
11314;BME280;5712;48.858;9.206;2023-08-17T08:59:09;98250.69;;;24.73;100.00
11314;BME280;5712;48.858;9.206;2023-08-17T09:01:38;98250.47;;;24.89;100.00
11314;BME280;5712;48.858;9.206;2023-08-17T09:04:06;98245.94;;;24.96;100.00
11314;BME280;5712;48.858;9.206;2023-08-17T09:06:33;98238.88;;;24.95;100.00
11314;BME280;5712;48.858;9.206;2023-08-17T09:09:01;98237.63;;;24.98;100.00
11314;BME280;5712;48.858;9.206;2023-08-17T09:11:29;98239.34;;;25.05;100.00
11314;BME280;5712;48.858;9.206;2023-08-17T09:13:55;98242.84;;;25.20;100.00
11314;BME280;5712;48.858;9.206;2023-08-17T09:16:22;98235.94;;;25.39;100.00
11314;BME280;5712;48.858;9.206;2023-08-17T09:18:48;98232.97;;;25.34;100.00
11314;BME280;5712;48.858;9.206;2023-08-17T09:21:23;98230.72;;;25.37;98.70
11314;BME280;5712;48.858;9.206;2023-08-17T09:23:51;98222.59;;;25.37;98.18
11314;BME280;5712;48.858;9.206;2023-08-17T09:26:19;98227.63;;;25.40;97.27
11314;BME280;5712;48.858;9.206;2023-08-17T09:28:47;98233.03;;;25.40;97.45
11314;BME280;5712;48.858;9.206;2023-08-17T09:31:13;98232.19;;;25.40;97.73
11314;BME280;5712;48.858;9.206;2023-08-17T09:33:40;98220.94;;;25.36;95.37
11314;BME280;5712;48.858;9.206;2023-08-17T09:36:06;98228.31;;;25.49;96.77
11314;BME280;5712;48.858;9.206;2023-08-17T09:38:34;98230.84;;;25.50;96.32
11314;BME280;5712;48.858;9.206;2023-08-17T09:41:00;98221.59;;;25.66;96.24
11314;BME280;5712;48.858;9.206;2023-08-17T09:43:27;98222.09;;;25.82;92.98
11314;BME280;5712;48.858;9.206;2023-08-17T09:45:56;98215.00;;;25.81;91.72
11314;BME280;5712;48.858;9.206;2023-08-17T09:48:25;98218.34;;;25.83;92.49
11314;BME280;5712;48.858;9.206;2023-08-17T09:50:56;98227.09;;;25.85;93.40
11314;BME280;5712;48.858;9.206;2023-08-17T09:53:22;98224.31;;;26.00;91.43
11314;BME280;5712;48.858;9.206;2023-08-17T09:55:51;98219.72;;;26.00;90.74
11314;BME280;5712;48.858;9.206;2023-08-17T09:58:20;98224.09;;;26.01;90.77
11314;BME280;5712;48.858;9.206;2023-08-17T10:00:48;98215.56;;;25.98;91.16
11314;BME280;5712;48.858;9.206;2023-08-17T10:03:17;98224.31;;;26.00;91.70
11314;BME280;5712;48.858;9.206;2023-08-17T10:05:47;98222.25;;;26.08;91.42
11314;BME280;5712;48.858;9.206;2023-08-17T10:08:17;98212.34;;;26.22;90.97
11314;BME280;5712;48.858;9.206;2023-08-17T10:10:46;98206.56;;;26.44;88.11
11314;BME280;5712;48.858;9.206;2023-08-17T10:13:30;98206.56;;;26.44;88.47
11314;BME280;5712;48.858;9.206;2023-08-17T10:16:02;98208.31;;;26.58;88.83
11314;BME280;5712;48.858;9.206;2023-08-17T10:18:31;98193.72;;;26.66;86.92
11314;BME280;5712;48.858;9.206;2023-08-17T10:21:01;98190.44;;;26.77;86.36
11314;BME280;5712;48.858;9.206;2023-08-17T10:23:30;98184.81;;;26.78;84.45
11314;BME280;5712;48.858;9.206;2023-08-17T10:25:57;98186.88;;;26.83;82.29
11314;BME280;5712;48.858;9.206;2023-08-17T10:28:24;98194.59;;;26.79;84.27
11314;BME280;5712;48.858;9.206;2023-08-17T10:30:52;98191.69;;;26.81;84.98
11314;BME280;5712;48.858;9.206;2023-08-17T10:33:19;98186.25;;;26.87;83.37
11314;BME280;5712;48.858;9.206;2023-08-17T10:35:46;98182.94;;;26.98;82.45
11314;BME280;5712;48.858;9.206;2023-08-17T10:38:15;98179.38;;;27.10;80.73
11314;BME280;5712;48.858;9.206;2023-08-17T10:40:42;98176.91;;;27.09;80.79
11314;BME280;5712;48.858;9.206;2023-08-17T10:43:09;98176.91;;;27.09;79.52
11314;BME280;5712;48.858;9.206;2023-08-17T10:45:38;98181.91;;;27.25;80.52
11314;BME280;5712;48.858;9.206;2023-08-17T10:48:29;98181.72;;;27.27;80.86
11314;BME280;5712;48.858;9.206;2023-08-17T10:51:02;98183.38;;;27.47;81.58
11314;BME280;5712;48.858;9.206;2023-08-17T10:53:34;98177.50;;;27.56;79.97
11314;BME280;5712;48.858;9.206;2023-08-17T10:56:01;98155.78;;;27.63;75.16
11314;BME280;5712;48.858;9.206;2023-08-17T10:58:30;98157.88;;;27.54;75.23
11314;BME280;5712;48.858;9.206;2023-08-17T11:00:58;98157.44;;;27.57;74.04
11314;BME280;5712;48.858;9.206;2023-08-17T11:03:25;98167.66;;;27.62;76.33
11314;BME280;5712;48.858;9.206;2023-08-17T11:05:54;98167.47;;;27.70;76.33
11314;BME280;5712;48.858;9.206;2023-08-17T11:08:22;98163.25;;;27.74;77.12
11314;BME280;5712;48.858;9.206;2023-08-17T11:10:57;98166.81;;;27.74;77.71
11314;BME280;5712;48.858;9.206;2023-08-17T11:13:27;98172.84;;;27.76;79.64
11314;BME280;5712;48.858;9.206;2023-08-17T11:15:53;98161.59;;;27.73;78.22
11314;BME280;5712;48.858;9.206;2023-08-17T11:18:21;98164.09;;;27.68;79.99
11314;BME280;5712;48.858;9.206;2023-08-17T11:20:49;98162.03;;;27.70;79.45
11314;BME280;5712;48.858;9.206;2023-08-17T11:23:16;98138.63;;;27.69;74.89
11314;BME280;5712;48.858;9.206;2023-08-17T11:25:43;98135.28;;;27.73;74.92
11314;BME280;5712;48.858;9.206;2023-08-17T11:28:10;98141.75;;;27.72;75.49
11314;BME280;5712;48.858;9.206;2023-08-17T11:30:38;98137.31;;;27.91;74.63
11314;BME280;5712;48.858;9.206;2023-08-17T11:33:06;98122.72;;;27.85;73.85
11314;BME280;5712;48.858;9.206;2023-08-17T11:35:34;98131.06;;;27.90;73.70
11314;BME280;5712;48.858;9.206;2023-08-17T11:38:00;98154.81;;;28.08;79.06
11314;BME280;5712;48.858;9.206;2023-08-17T11:40:27;98135.53;;;28.16;75.07
11314;BME280;5712;48.858;9.206;2023-08-17T11:42:54;98143.47;;;28.17;74.00
11314;BME280;5712;48.858;9.206;2023-08-17T11:45:20;98147.31;;;28.03;75.95
11314;BME280;5712;48.858;9.206;2023-08-17T11:47:47;98155.63;;;28.15;77.25
11314;BME280;5712;48.858;9.206;2023-08-17T11:50:14;98165.03;;;28.19;79.84
11314;BME280;5712;48.858;9.206;2023-08-17T11:52:42;98151.19;;;28.27;77.64
11314;BME280;5712;48.858;9.206;2023-08-17T11:55:09;98159.53;;;28.25;77.00
11314;BME280;5712;48.858;9.206;2023-08-17T11:57:36;98156.00;;;28.25;76.45
11314;BME280;5712;48.858;9.206;2023-08-17T12:00:04;98153.03;;;28.26;75.29
11314;BME280;5712;48.858;9.206;2023-08-17T12:02:32;98142.63;;;28.23;74.84
11314;BME280;5712;48.858;9.206;2023-08-17T12:05:03;98146.41;;;28.22;75.64
11314;BME280;5712;48.858;9.206;2023-08-17T12:07:32;98133.75;;;28.41;73.40
11314;BME280;5712;48.858;9.206;2023-08-17T12:10:02;98154.22;;;28.50;75.37
11314;BME280;5712;48.858;9.206;2023-08-17T12:12:30;98156.53;;;28.46;73.29
11314;BME280;5712;48.858;9.206;2023-08-17T12:14:57;98157.41;;;28.40;73.76
11314;BME280;5712;48.858;9.206;2023-08-17T12:17:24;98173.94;;;28.39;75.42
11314;BME280;5712;48.858;9.206;2023-08-17T12:19:54;98164.31;;;28.43;73.77
11314;BME280;5712;48.858;9.206;2023-08-17T12:22:24;98170.47;;;28.63;74.06
11314;BME280;5712;48.858;9.206;2023-08-17T12:24:51;98168.72;;;28.75;74.91
11314;BME280;5712;48.858;9.206;2023-08-17T12:27:21;98174.00;;;29.01;73.56
11314;BME280;5712;48.858;9.206;2023-08-17T12:29:48;98153.06;;;29.01;70.52
11314;BME280;5712;48.858;9.206;2023-08-17T12:32:16;98147.69;;;28.88;70.78
11314;BME280;5712;48.858;9.206;2023-08-17T12:34:43;98139.53;;;28.88;70.22
11314;BME280;5712;48.858;9.206;2023-08-17T12:37:10;98144.91;;;28.70;69.65
11314;BME280;5712;48.858;9.206;2023-08-17T12:39:37;98138.69;;;28.57;69.63
11314;BME280;5712;48.858;9.206;2023-08-17T12:42:03;98135.00;;;28.45;69.80
11314;BME280;5712;48.858;9.206;2023-08-17T12:44:31;98141.34;;;28.26;69.76
11314;BME280;5712;48.858;9.206;2023-08-17T12:46:58;98152.66;;;28.23;70.47
11314;BME280;5712;48.858;9.206;2023-08-17T12:49:25;98158.94;;;28.17;69.56
11314;BME280;5712;48.858;9.206;2023-08-17T12:51:51;98166.75;;;28.07;69.53
11314;BME280;5712;48.858;9.206;2023-08-17T12:54:18;98175.75;;;28.01;69.98
11314;BME280;5712;48.858;9.206;2023-08-17T12:56:44;98169.94;;;27.91;68.71
11314;BME280;5712;48.858;9.206;2023-08-17T12:59:11;98162.44;;;27.80;67.99
11314;BME280;5712;48.858;9.206;2023-08-17T13:01:39;98170.38;;;27.75;69.19
11314;BME280;5712;48.858;9.206;2023-08-17T13:04:06;98175.59;;;27.70;69.09